createdAt,value
2019-05-23T00:02:14.730Z,89.41
2019-05-23T00:07:16.497Z,89.56
2019-05-23T00:12:12.478Z,89.50
2019-05-23T00:17:10.279Z,88.66
2019-05-23T00:22:06.286Z,88.60
2019-05-23T00:27:02.433Z,89.71
2019-05-23T00:32:04.413Z,89.71
2019-05-23T00:36:58.769Z,90.57
2019-05-23T00:41:53.161Z,90.63
2019-05-23T00:46:48.127Z,92.51
2019-05-23T00:51:42.082Z,92.91
2019-05-23T00:56:37.364Z,93.07
2019-05-23T01:01:33.412Z,93.31
2019-05-23T01:06:28.815Z,93.25
2019-05-23T01:11:23.464Z,92.38
2019-05-23T01:16:18.147Z,93.32
2019-05-23T01:21:17.325Z,93.99
2019-05-23T01:26:12.795Z,93.34
2019-05-23T01:31:08.753Z,94.41
2019-05-23T01:36:04.005Z,94.27
2019-05-23T01:40:58.819Z,94.19
2019-05-23T01:45:52.970Z,94.42
2019-05-23T01:50:48.223Z,95.11
2019-05-23T01:55:43.089Z,94.78
2019-05-23T02:00:37.345Z,95.42
2019-05-23T02:05:32.518Z,95.92
2019-05-23T02:10:27.991Z,96.38
2019-05-23T02:15:22.049Z,95.89
2019-05-23T02:20:18.343Z,96.35
2019-05-23T02:25:13.835Z,96.19
2019-05-23T02:30:30.190Z,96.48
2019-05-23T02:35:07.737Z,96.74
2019-05-23T02:40:23.251Z,96.30
2019-05-23T02:45:23.339Z,96.88
2019-05-23T02:50:43.104Z,97.27
2019-05-23T02:55:38.245Z,95.95
2019-05-23T03:00:53.421Z,96.63
2019-05-23T03:05:38.213Z,96.90
2019-05-23T03:10:46.905Z,97.66
2019-05-23T03:15:41.465Z,97.99
2019-05-23T03:20:35.768Z,97.55
2019-05-23T03:25:34.880Z,97.82
2019-05-23T03:30:34.053Z,97.85
2019-05-23T03:35:29.875Z,97.71
2019-05-23T03:40:23.970Z,97.85
2019-05-23T03:45:20.530Z,97.62
2019-05-23T03:50:15.900Z,97.16
2019-05-23T03:55:11.165Z,96.22
2019-05-23T04:00:08.675Z,95.91
2019-05-23T04:05:06.850Z,95.80
2019-05-23T04:10:00.911Z,95.17
2019-05-23T04:14:55.072Z,95.15
2019-05-23T04:19:49.137Z,94.29
2019-05-23T04:24:43.137Z,93.79
2019-05-23T04:29:37.187Z,93.67
2019-05-23T04:34:31.139Z,93.00
2019-05-23T04:39:25.203Z,92.81
2019-05-23T04:44:19.451Z,92.17
2019-05-23T04:49:14.017Z,91.70
2019-05-23T04:54:08.631Z,91.81
2019-05-23T04:59:03.185Z,90.94
2019-05-23T05:03:57.461Z,90.38
2019-05-23T05:08:53.733Z,89.78
2019-05-23T05:13:47.988Z,89.64
2019-05-23T05:18:41.947Z,88.58
2019-05-23T05:23:36.321Z,87.61
2019-05-23T05:28:30.321Z,86.72
2019-05-23T05:33:24.383Z,85.78
2019-05-23T05:38:18.956Z,84.74
2019-05-23T05:43:13.658Z,84.29
2019-05-23T05:48:08.193Z,83.53
2019-05-23T05:53:02.665Z,82.23
2019-05-23T05:57:56.612Z,81.70
2019-05-23T06:03:03.542Z,80.18
2019-05-23T06:07:47.229Z,80.28
2019-05-23T06:12:41.590Z,78.45
2019-05-23T06:17:35.978Z,78.26
2019-05-23T06:22:30.135Z,77.92
2019-05-23T06:27:24.229Z,77.01
2019-05-23T06:32:20.611Z,76.38
2019-05-23T06:37:14.960Z,76.97
2019-05-23T06:42:09.316Z,75.82
2019-05-23T06:47:05.153Z,74.81
2019-05-23T06:51:59.437Z,73.92
2019-05-23T06:56:53.376Z,73.32
2019-05-23T07:01:47.636Z,72.82
2019-05-23T07:06:42.852Z,70.52
2019-05-23T07:11:37.120Z,70.15
2019-05-23T07:16:31.447Z,69.25
2019-05-23T07:21:25.403Z,69.29
2019-05-23T07:26:19.508Z,67.56
2019-05-23T07:31:13.646Z,66.37
2019-05-23T07:36:08.039Z,65.54
2019-05-23T07:41:02.692Z,65.42
2019-05-23T07:45:58.529Z,63.14
2019-05-23T07:50:52.608Z,63.81
2019-05-23T07:55:51.453Z,62.66
2019-05-23T08:00:47.435Z,63.95
2019-05-23T08:05:42.406Z,59.77
2019-05-23T08:10:36.888Z,59.81
2019-05-23T08:15:31.353Z,57.96
2019-05-23T08:20:26.138Z,57.81
2019-05-23T08:25:20.196Z,57.72
2019-05-23T08:30:15.405Z,59.26
2019-05-23T08:35:10.191Z,56.91
2019-05-23T08:40:05.380Z,57.38
2019-05-23T08:45:00.054Z,53.50
2019-05-23T08:49:54.531Z,52.00
2019-05-23T08:54:52.325Z,52.86
2019-05-23T08:59:46.315Z,47.89
2019-05-23T09:05:01.180Z,47.92
2019-05-23T09:09:36.782Z,47.07
2019-05-23T09:14:30.752Z,46.59
2019-05-23T09:19:24.975Z,46.33
2019-05-23T09:24:19.130Z,43.23
2019-05-23T09:29:13.177Z,39.97
2019-05-23T09:34:07.423Z,38.77
2019-05-23T09:39:01.576Z,38.76
2019-05-23T09:43:55.541Z,37.83
2019-05-23T09:48:49.723Z,37.88
2019-05-23T09:53:47.273Z,37.81
2019-05-23T09:58:40.382Z,36.02
2019-05-23T10:03:34.342Z,35.83
2019-05-23T10:08:28.309Z,37.35
2019-05-23T10:13:37.752Z,35.87
2019-05-23T10:18:20.780Z,36.57
2019-05-23T10:23:14.817Z,36.09
2019-05-23T10:28:09.216Z,36.13
2019-05-23T10:33:11.044Z,33.43
2019-05-23T10:37:59.718Z,31.83
2019-05-23T10:42:53.888Z,31.29
2019-05-23T10:47:47.867Z,30.31
2019-05-23T10:52:42.045Z,29.79
2019-05-23T10:57:36.183Z,29.17
2019-05-23T11:02:30.568Z,29.89
2019-05-23T11:07:24.988Z,29.88
2019-05-23T11:12:19.063Z,30.61
2019-05-23T11:17:13.373Z,30.05
2019-05-23T11:22:08.268Z,28.92
2019-05-23T11:27:02.730Z,25.69
2019-05-23T11:31:56.969Z,25.85
2019-05-23T11:36:51.063Z,25.50
2019-05-23T11:41:45.484Z,26.05
2019-05-23T11:46:40.172Z,26.77
2019-05-23T11:51:35.120Z,28.88
2019-05-23T11:56:30.010Z,28.74
2019-05-23T12:01:40.982Z,30.14
2019-05-23T12:06:53.433Z,29.16
2019-05-23T12:11:36.609Z,29.11
2019-05-23T12:16:29.727Z,27.09
2019-05-23T12:21:24.600Z,26.55
2019-05-23T12:26:18.669Z,26.68
2019-05-23T12:31:13.032Z,25.16
2019-05-23T12:36:08.321Z,21.95
2019-05-23T12:41:02.958Z,22.93
2019-05-23T12:45:56.933Z,25.40
2019-05-23T12:51:05.193Z,25.39
2019-05-23T12:55:59.681Z,25.50
2019-05-23T13:00:55.990Z,23.51
2019-05-23T13:05:51.013Z,24.88
2019-05-23T13:10:45.390Z,22.68
2019-05-23T13:15:39.592Z,20.60
2019-05-23T13:20:34.260Z,23.63
2019-05-23T13:25:28.483Z,26.17
2019-05-23T13:30:22.538Z,21.22
2019-05-23T13:35:16.894Z,20.98
2019-05-23T13:40:11.329Z,18.29
2019-05-23T13:45:05.810Z,15.04
2019-05-23T13:49:59.851Z,18.57
2019-05-23T13:54:53.948Z,19.03
2019-05-23T13:59:48.026Z,21.77
2019-05-23T14:04:42.332Z,22.14
2019-05-23T14:09:36.646Z,26.05
2019-05-23T14:14:31.257Z,17.73
2019-05-23T14:19:29.242Z,16.23
2019-05-23T14:24:21.413Z,11.97
2019-05-23T14:29:15.621Z,11.33
2019-05-23T14:34:10.137Z,12.04
2019-05-23T14:39:08.036Z,12.16
2019-05-23T14:44:02.477Z,12.19
2019-05-23T14:49:07.253Z,11.96
2019-05-23T14:54:05.887Z,20.45
2019-05-23T14:59:00.291Z,19.86
2019-05-23T15:03:54.531Z,15.54
2019-05-23T15:08:51.604Z,11.90
2019-05-23T15:13:44.958Z,11.72
2019-05-23T15:18:38.957Z,12.32
2019-05-23T15:23:33.178Z,10.44
2019-05-23T15:28:27.279Z,9.53
2019-05-23T15:33:21.408Z,10.72
2019-05-23T15:38:15.398Z,11.19
2019-05-23T15:43:10.295Z,11.02
2019-05-23T15:48:04.914Z,11.41
2019-05-23T15:53:17.471Z,11.92
2019-05-23T15:58:16.451Z,12.41
2019-05-23T16:03:31.505Z,11.41
2019-05-23T16:08:26.061Z,11.03
2019-05-23T16:13:20.361Z,13.48
2019-05-23T16:18:14.780Z,15.01
2019-05-23T16:23:09.085Z,14.97
2019-05-23T16:28:03.307Z,15.96
2019-05-23T16:32:57.341Z,20.47
2019-05-23T16:37:51.555Z,22.28
2019-05-23T16:42:45.684Z,23.45
2019-05-23T16:47:39.859Z,23.47
2019-05-23T16:52:34.781Z,24.74
2019-05-23T16:57:39.704Z,25.94
2019-05-23T17:02:52.442Z,26.00
2019-05-23T17:08:04.473Z,26.47
2019-05-23T17:13:06.424Z,26.40
2019-05-23T17:18:09.051Z,26.68
2019-05-23T17:23:20.313Z,26.51
2019-05-23T17:28:16.315Z,26.07
2019-05-23T17:33:22.210Z,26.45
2019-05-23T17:38:16.418Z,26.17
2019-05-23T17:43:11.008Z,27.00
2019-05-23T17:48:05.742Z,26.86
2019-05-23T17:52:59.693Z,26.75
2019-05-23T17:57:56.798Z,27.40
2019-05-23T18:02:50.701Z,27.37
2019-05-23T18:07:44.842Z,28.29
2019-05-23T18:12:38.878Z,28.73
2019-05-23T18:17:33.044Z,29.38
2019-05-23T18:22:29.337Z,29.73
2019-05-23T18:27:23.438Z,30.34
2019-05-23T18:32:19.464Z,31.37
2019-05-23T18:37:13.513Z,32.22
2019-05-23T18:42:07.882Z,32.70
2019-05-23T18:47:03.891Z,33.73
2019-05-23T18:51:58.117Z,33.66
2019-05-23T18:56:52.223Z,33.23
2019-05-23T19:01:46.630Z,34.25
2019-05-23T19:06:42.606Z,34.93
2019-05-23T19:11:36.883Z,37.45
2019-05-23T19:16:32.427Z,36.67
2019-05-23T19:21:27.840Z,38.78
2019-05-23T19:26:22.193Z,39.68
2019-05-23T19:31:16.177Z,41.22
2019-05-23T19:36:11.292Z,41.05
2019-05-23T19:41:07.231Z,43.18
2019-05-23T19:46:01.309Z,45.35
2019-05-23T19:50:56.478Z,46.85
2019-05-23T19:55:50.945Z,47.53
2019-05-23T20:00:45.414Z,48.32
2019-05-23T20:05:41.469Z,48.04
2019-05-23T20:10:36.946Z,47.99
2019-05-23T20:15:31.491Z,48.26
2019-05-23T20:20:25.843Z,48.83
2019-05-23T20:25:20.762Z,49.42
2019-05-23T20:30:35.573Z,48.95
2019-05-23T20:35:29.571Z,50.09
2019-05-23T20:40:23.980Z,51.68
2019-05-23T20:45:18.053Z,52.04
2019-05-23T20:50:12.275Z,52.15
2019-05-23T20:55:06.936Z,53.01
2019-05-23T21:00:01.233Z,53.35
2019-05-23T21:04:55.493Z,53.61
2019-05-23T21:09:49.579Z,54.08
2019-05-23T21:14:43.944Z,54.05
2019-05-23T21:19:38.119Z,54.52
2019-05-23T21:24:32.806Z,53.88
2019-05-23T21:29:26.893Z,54.20
2019-05-23T21:34:22.215Z,55.74
2019-05-23T21:39:16.833Z,55.27
2019-05-23T21:44:10.932Z,55.87
2019-05-23T21:49:05.151Z,57.60
2019-05-23T21:53:59.249Z,58.14
2019-05-23T21:58:53.475Z,58.71
2019-05-23T22:03:52.243Z,59.53
2019-05-23T22:08:47.820Z,60.50
2019-05-23T22:13:41.903Z,60.91
2019-05-23T22:18:36.220Z,61.80
2019-05-23T22:23:30.310Z,62.40
2019-05-23T22:28:24.316Z,62.05
2019-05-23T22:33:20.199Z,63.26
2019-05-23T22:38:14.283Z,64.01
2019-05-23T22:43:20.144Z,63.63
2019-05-23T22:48:04.745Z,63.38
2019-05-23T22:52:58.716Z,63.09
2019-05-23T22:57:52.782Z,63.81
2019-05-23T23:02:46.955Z,62.75
2019-05-23T23:07:41.369Z,63.54
2019-05-23T23:12:35.333Z,62.73
2019-05-23T23:17:29.920Z,62.38
2019-05-23T23:22:23.873Z,63.08
2019-05-23T23:27:17.966Z,63.54
2019-05-23T23:32:12.270Z,63.11
2019-05-23T23:37:06.340Z,64.85
2019-05-23T23:42:00.335Z,63.38
2019-05-23T23:47:13.040Z,64.20
2019-05-23T23:52:25.464Z,64.35
2019-05-23T23:57:38.217Z,65.34
